Details From SLVR - VIRU VIRU INTL
To SLCB - JORGE WILSTERMAN
Flight Number -
Tags generated
Created
Modified
Stats Distance 175 nm / 324 km
Max Altitude 20,200 ft / 6,157 m
Waypoints 3
Social Downloads 2
Likes 0
Share VATSIM

Download

Looking for another format? Having issues loading an existing format? Contact us
Advertisement - Login to hide

Notes

Basic altitude profile: - Ascent Rate: 2500ft/min - Ascent Speed: 250kts - Cruise Altitude: 35000ft - Cruise Speed: 420kts - Descent Rate: 1500ft/min - Descent Speed: 250kts Options: - Use NATs: yes - Use PACOTS: yes - Use low airways: no - Use high airways: yes

Route

SLVR SISER SLCB

ID Type Via Altitude (ft/m) Position (lat/lon) Dist (leg/tot) Name
O SLVR APT - 0 / 0 -17.64476 / -63.13536 - / 0 nm VIRU VIRU INTL
SISER FIX - 20,200 / 6,157 -17.65215 / -64.54896 80 / 80 nm
O SLCB APT - 0 / 0 -17.42039 / -66.17717 94 / 175 nm JORGE WILSTERMAN

Altitude Profile

Advertisement - Login to hide

Weather


0- 5 10 15 20 25 30 35+ Temperature / °C

Clouds and Precipitation
Forecast for 2018-09-21 06:00 UTC. Updated 4 hours ago

Ground ~20,000 ft ~40,000 ft Winds

SLVR

Details ICAO SLVR (VVI)
Name Viru Viru Int'l
Region Bolivia
Timezone America/La_Paz (UTC-4.0)
Stats Elevation 1,225 ft / 373 m (AMSL)
Location -17.644800° -63.135400°
Runways 1
Magnetic Variation 12.040° W

METAR

SLVR 210700Z 34004KT 9999 SCT017 SCT200 23/22 Q1011

Decode

TAF

Not found

Departure Runways

ID Width Length Bearing (true/mag) Surface Threshold Overrun Markings Lighting
16 148 ft / 45 m 11,494 ft / 3,503 m 147.34° / 159.38° CONCRETE 0 ft / 0 m 0 ft / 0 m PREC-APP CENTERLINE EDGE THRESHOLD CALVERT
34 148 ft / 45 m 11,494 ft / 3,503 m 327.33° / 339.37° CONCRETE 0 ft / 0 m 0 ft / 0 m PREC-APP CENTERLINE EDGE THRESHOLD ALSF-I

SLCB

Details ICAO SLCB (CBB)
Name JORGE WILSTERMAN
Region Bolivia
Timezone America/La_Paz (UTC-4.0)
Stats Elevation 8,359 ft / 2,548 m (AMSL)
Location -17.420400° -66.177200°
Runways 2
Magnetic Variation 9.547° W

METAR

SLCB 210700Z 24004KT 9999 FEW030 BKN200 17/10 Q1023

Decode

TAF

Not found

Destination Runways

ID Width Length Bearing (true/mag) Surface Threshold Overrun Markings Lighting
04 148 ft / 45 m 8,718 ft / 2,657 m 37.26° / 46.81° ASPHALT 0 ft / 0 m 0 ft / 0 m PREC-APP EDGE THRESHOLD
14 148 ft / 45 m 12,485 ft / 3,805 m 132.10° / 141.65° ASPHALT 335 ft / 102 m 200 ft / 61 m PREC-APP EDGE THRESHOLD
22 148 ft / 45 m 8,718 ft / 2,657 m 217.26° / 226.80° ASPHALT 732 ft / 223 m 0 ft / 0 m PREC-APP EDGE THRESHOLD
32 148 ft / 45 m 12,485 ft / 3,805 m 312.10° / 321.64° ASPHALT 984 ft / 300 m 200 ft / 61 m PREC-APP EDGE THRESHOLD ALSF-I

Approach Navaids

Runway Type Ident Frequency Range Bearing (true/mag) Slope Elevation
32 DME ILCO 110.50 MHz 18 nm / 33 km - - 8,360 ft / 2,548 m (AMSL)
32 GS ILCO 110.50 MHz 10 nm / 19 km 312.20° / 321.74 ° 3.30° 8,360 ft / 2,548 m (AMSL)
32 LOC-ILS ILCO 110.50 MHz 18 nm / 33 km 311.99° / 321.54 ° - 8,360 ft / 2,548 m (AMSL)

Popular Alternatives